首页
METAR-TAF:

METAR-TAF

机场 :

新山一國際機場

胡志明, 越南

纬度: 10-49N, 经度: 106-40E, 海拔: 19米

当前天气观测

该预报发布于28分钟前的02:00 UTC
风速2节,风向多变
温度 27°C
湿度 94%
气压 1008 hPa
能見度: 8000
散云层高于1500英尺
多云层高于4000英尺

METAR: VVTS 190200Z VRB02KT 8000 SCT015 BKN040 27/26 Q1008 NOSIG

时间: 09:28 (02:28 UTC)

预报

该预报发布于3小时和28分钟前的23:00 UTC
预报有效从19日的 00点(UTC)到 20日的 06点(UTC)
风速8节,风向西转西南
能见度10公里或以上
散云层高于1500英尺
散云层高于4000英尺
短暂存在
从 19日的 04点(UTC)到 19日的 08点(UTC)
风速15节,风向西转西南,有时为30节阵风
能見度: 2000
多云层高于1300英尺
散云层高于1500英尺, 积雨云.
雷暴, 大雨
短暂存在
从 19日的 08点(UTC)到 19日的 11点(UTC)
能見度: 5000
多云层高于1500英尺
多云层高于4000英尺

TAF: VVTS 182300Z 1900/2006 24008KT 9999 SCT015 SCT040 TEMPO 1904/1908 24015G30KT 2000 +TSRA BKN013 SCT015CB TEMPO 1908/1911 5000 RA BKN015 BKN040

超过4000个机场的气象观测和天气预报(METAR&TAF报告)。

可查询的气象台以黄色和红色小点在地图上表示。

将鼠标移到小点上方,可查看气象台名称。

然后点击查看天气观测和预报。

如需切换地图:点击带黑十字的绿色按钮放大地图;点击带横线的绿色按钮缩小地图;或者点击绿色箭头查看邻近地区的地图。


METAR-TAF: